Time,TemperatureF,DewpointF,PressureIn,WindDirection,WindDirectionDegrees,WindSpeedMPH,WindSpeedGustMPH,Humidity,HourlyPrecipIn,Conditions,Clouds,dailyrainin,SoftwareType,DateUTC
2013-10-26 00:23:00,42.0,26.0,30.13,NNE,27,0.0,2.0,53,0.00,,,0.00,,2013-10-26 05:23:00,
2013-10-26 00:52:00,42.0,27.0,30.12,NNE,27,0.0,2.0,54,0.00,,,0.00,,2013-10-26 05:52:00,
2013-10-26 01:12:00,41.0,26.0,30.12,NNE,27,0.0,0.0,55,0.00,,,0.00,,2013-10-26 06:12:00,
2013-10-26 01:22:00,40.0,26.0,30.12,NNE,27,0.0,0.0,58,0.00,,,0.00,,2013-10-26 06:22:00,
2013-10-26 01:52:00,38.0,27.0,30.12,NNE,27,0.0,0.0,63,0.00,,,0.00,,2013-10-26 06:52:00,
2013-10-26 02:11:00,39.0,28.0,30.11,NNE,28,0.0,0.0,64,0.00,,,0.00,,2013-10-26 07:11:00,
2013-10-26 02:22:00,39.0,27.0,30.11,NNE,27,0.0,1.0,63,0.00,,,0.00,,2013-10-26 07:22:00,
2013-10-26 02:42:00,39.0,27.0,30.11,NNE,27,0.0,0.0,63,0.00,,,0.00,,2013-10-26 07:42:00,
2013-10-26 02:52:00,39.0,27.0,30.11,NNE,27,0.0,2.0,63,0.00,,,0.00,,2013-10-26 07:52:00,
2013-10-26 03:22:00,41.0,29.0,30.10,North,11,0.0,5.0,61,0.00,,,0.00,,2013-10-26 08:22:00,
2013-10-26 03:42:00,41.0,29.0,30.09,North,11,0.0,2.0,61,0.00,,,0.00,,2013-10-26 08:42:00,
2013-10-26 03:52:00,41.0,29.0,30.08,North,11,0.0,1.0,61,0.00,,,0.00,,2013-10-26 08:52:00,
2013-10-26 04:22:00,42.0,29.0,30.06,NNE,28,0.0,3.0,59,0.00,,,0.00,,2013-10-26 09:22:00,
2013-10-26 04:53:00,43.0,29.0,30.06,NE,51,0.0,5.0,57,0.00,,,0.00,,2013-10-26 09:53:00,
2013-10-26 05:23:00,44.0,29.0,30.06,NE,39,0.0,2.0,56,0.00,,,0.00,,2013-10-26 10:23:00,
2013-10-26 05:53:00,44.0,30.0,30.05,ESE,114,0.0,5.0,57,0.00,,,0.00,,2013-10-26 10:53:00,
2013-10-26 06:11:00,43.0,29.0,30.04,NE,34,1.0,5.0,58,0.00,,,0.00,,2013-10-26 11:11:00,
2013-10-26 06:21:00,43.0,30.0,30.04,NNE,19,0.0,3.0,59,0.00,,,0.00,,2013-10-26 11:21:00,
2013-10-26 06:52:00,42.0,30.0,30.03,NNE,13,0.0,5.0,61,0.00,,,0.00,,2013-10-26 11:52:00,
2013-10-26 07:21:00,42.0,30.0,30.01,NNE,12,2.0,7.0,62,0.00,,,0.00,,2013-10-26 12:21:00,
2013-10-26 07:52:00,43.0,31.0,30.00,NNE,22,1.0,3.0,62,0.00,,,0.00,,2013-10-26 12:52:00,
2013-10-26 08:21:00,44.0,32.0,30.00,North,10,1.0,3.0,62,0.00,,,0.00,,2013-10-26 13:21:00,
2013-10-26 08:52:00,45.0,33.0,30.01,SE,141,1.0,7.0,62,0.00,,,0.00,,2013-10-26 13:52:00,
2013-10-26 09:21:00,47.0,34.0,30.01,NNE,17,0.0,3.0,61,0.00,,,0.00,,2013-10-26 14:21:00,
2013-10-26 09:42:00,48.0,35.0,30.01,ESE,116,0.0,6.0,60,0.00,,,0.00,,2013-10-26 14:42:00,
2013-10-26 09:52:00,49.0,36.0,30.00,ESE,107,1.0,3.0,60,0.00,,,0.00,,2013-10-26 14:52:00,
2013-10-26 10:23:00,51.0,37.0,29.99,SE,131,1.0,3.0,58,0.00,,,0.00,,2013-10-26 15:23:00,
2013-10-26 10:55:00,53.0,38.0,29.99,East,92,2.0,10.0,56,0.00,,,0.00,,2013-10-26 15:55:00,
2013-10-26 11:24:00,56.0,40.0,29.99,SSE,164,0.0,7.0,55,0.00,,,0.00,,2013-10-26 16:24:00,
2013-10-26 11:54:00,58.0,40.0,29.98,SSE,166,1.0,6.0,52,0.00,,,0.00,,2013-10-26 16:54:00,
2013-10-26 12:12:00,59.0,40.0,29.98,ENE,78,1.0,8.0,50,0.00,,,0.00,,2013-10-26 17:12:00,
2013-10-26 12:23:00,59.0,41.0,29.98,SE,142,1.0,5.0,51,0.00,,,0.00,,2013-10-26 17:23:00,
2013-10-26 12:52:00,60.0,41.0,29.97,SSE,153,0.0,3.0,49,0.00,,,0.00,,2013-10-26 17:52:00,
2013-10-26 13:21:00,61.0,41.0,29.96,SE,144,2.0,5.0,47,0.00,,,0.00,,2013-10-26 18:21:00,
2013-10-26 13:42:00,62.0,41.0,29.96,South,186,2.0,6.0,46,0.00,,,0.00,,2013-10-26 18:42:00,
2013-10-26 13:52:00,63.0,42.0,29.95,SE,130,0.0,5.0,46,0.00,,,0.00,,2013-10-26 18:52:00,
2013-10-26 14:12:00,63.0,42.0,29.94,ENE,77,2.0,5.0,46,0.00,,,0.00,,2013-10-26 19:12:00,
2013-10-26 14:22:00,63.0,41.0,29.94,SSE,152,2.0,3.0,45,0.00,,,0.00,,2013-10-26 19:22:00,
2013-10-26 14:52:00,64.0,40.0,29.94,South,181,1.0,3.0,42,0.00,,,0.00,,2013-10-26 19:52:00,
2013-10-26 15:22:00,64.0,39.0,29.94,SSE,167,1.0,5.0,40,0.00,,,0.00,,2013-10-26 20:22:00,
2013-10-26 15:52:00,63.0,38.0,29.94,SSE,165,1.0,5.0,40,0.00,,,0.00,,2013-10-26 20:52:00,
2013-10-26 16:22:00,63.0,38.0,29.95,South,177,2.0,7.0,40,0.00,,,0.00,,2013-10-26 21:22:00,
2013-10-26 16:54:00,62.0,36.0,29.96,South,182,2.0,7.0,38,0.00,,,0.00,,2013-10-26 21:54:00,
2013-10-26 17:24:00,61.0,32.0,29.96,SE,142,0.0,3.0,34,0.00,,,0.00,,2013-10-26 22:24:00,
2013-10-26 17:54:00,60.0,32.0,29.97,SE,142,1.0,3.0,35,0.00,,,0.00,,2013-10-26 22:54:00,
2013-10-26 18:22:00,59.0,32.0,29.98,SSE,150,0.0,3.0,36,0.00,,,0.00,,2013-10-26 23:22:00,
2013-10-26 18:52:00,56.0,29.0,30.00,WSW,238,0.0,3.0,35,0.00,,,0.00,,2013-10-26 23:52:00,
2013-10-26 19:21:00,54.0,28.0,30.02,WSW,255,0.0,1.0,37,0.00,,,0.00,,2013-10-27 00:21:00,
2013-10-26 19:52:00,53.0,29.0,30.03,West,263,0.0,1.0,39,0.00,,,0.00,,2013-10-27 00:52:00,
2013-10-26 20:22:00,51.0,29.0,30.04,West,263,0.0,0.0,42,0.00,,,0.00,,2013-10-27 01:22:00,
2013-10-26 20:52:00,48.0,30.0,30.05,West,263,0.0,0.0,49,0.00,,,0.00,,2013-10-27 01:52:00,
2013-10-26 21:12:00,46.0,30.0,30.05,West,263,0.0,0.0,53,0.00,,,0.00,,2013-10-27 02:12:00,
2013-10-26 21:21:00,45.0,30.0,30.05,West,263,0.0,0.0,56,0.00,,,0.00,,2013-10-27 02:21:00,
2013-10-26 21:52:00,45.0,30.0,30.06,West,263,0.0,0.0,55,0.00,,,0.00,,2013-10-27 02:52:00,
2013-10-26 22:22:00,44.0,30.0,30.06,West,263,0.0,0.0,58,0.00,,,0.00,,2013-10-27 03:22:00,
2013-10-26 22:55:00,41.0,29.0,30.06,West,263,0.0,0.0,62,0.00,,,0.00,,2013-10-27 03:55:00,
2013-10-26 23:02:00,-999.0,-99.9,30.06,West,263,0.0,0.0,-999,-99.99,,,-99.99,,2013-10-27 04:02:00,
2013-10-26 23:24:00,41.0,29.0,30.06,West,263,0.0,0.0,62,0.00,,,0.00,,2013-10-27 04:24:00,
2013-10-26 23:54:00,40.0,29.0,30.05,West,263,0.0,0.0,64,0.00,,,0.00,,2013-10-27 04:54:00,